Cruzeta, Brazil
Current Conditions -  °F | °C
As of 12:00 PM on Tuesday 21 Oct 2014 (Local Time) from SBKG Reporting Station
Broken Clouds Broken Clouds  
Wind Chill: 86°   Ceiling: 4500
Heat Index: 86°   Visibility: 6mi
Dew Point: 61°   Wind: 12mph
Humidity: 43%   Direction: 100°E
Pressure: 29.97"   Gusts: NA
Location:  6.41°S, 36.79°W
Report Text: SBKG 211500Z 10010KT 9999 BKN045 30/16 Q1015
Loading
Personal Weather Stations






























Interactive Weather Map
Tropical Storm Tracking
New forecast layout! Learn more

10-Day Weather Forecast

Advertisements
Track Severe Weather on mobile